createdAt,value
2022-08-21T00:01:54.486Z,49.20
2022-08-21T00:04:29.465Z,49.40
2022-08-21T00:07:00.265Z,49.30
2022-08-21T00:09:28.712Z,49.30
2022-08-21T00:11:57.386Z,49.30
2022-08-21T00:14:25.718Z,49.40
2022-08-21T00:17:00.455Z,49.30
2022-08-21T00:19:29.639Z,49.30
2022-08-21T00:21:59.637Z,49.20
2022-08-21T00:24:29.300Z,49.10
2022-08-21T00:26:57.824Z,49.10
2022-08-21T00:29:26.283Z,49.10
2022-08-21T00:31:55.626Z,49.10
2022-08-21T00:34:24.332Z,49.00
2022-08-21T00:36:52.663Z,49.00
2022-08-21T00:39:22.620Z,49.00
2022-08-21T00:41:51.039Z,49.10
2022-08-21T00:44:19.651Z,49.10
2022-08-21T00:46:48.084Z,49.00
2022-08-21T00:49:17.004Z,49.10
2022-08-21T00:51:49.567Z,49.10
2022-08-21T00:54:19.443Z,49.10
2022-08-21T00:56:52.483Z,49.10
2022-08-21T00:59:22.975Z,49.10
2022-08-21T01:01:53.184Z,49.00
2022-08-21T01:04:22.475Z,49.10
2022-08-21T01:06:52.536Z,49.10
2022-08-21T01:09:21.762Z,49.00
2022-08-21T01:11:52.163Z,49.00
2022-08-21T01:14:21.187Z,49.10
2022-08-21T01:16:54.127Z,49.10
2022-08-21T01:19:24.381Z,49.10
2022-08-21T01:21:54.850Z,49.10
2022-08-21T01:24:24.116Z,49.10
2022-08-21T01:26:53.990Z,49.10
2022-08-21T01:29:32.443Z,49.10
2022-08-21T01:32:01.847Z,49.00
2022-08-21T01:34:30.419Z,49.10
2022-08-21T01:37:00.586Z,49.00
2022-08-21T01:39:29.451Z,49.00
2022-08-21T01:41:58.143Z,49.10
2022-08-21T01:44:27.634Z,49.00
2022-08-21T01:46:57.318Z,49.00
2022-08-21T01:49:26.201Z,49.00
2022-08-21T01:51:54.917Z,50.20
2022-08-21T01:54:25.106Z,48.90
2022-08-21T01:56:55.473Z,48.90
2022-08-21T01:59:25.865Z,48.90
2022-08-21T02:01:55.593Z,48.90
2022-08-21T02:04:25.314Z,48.90
2022-08-21T02:06:53.923Z,49.00
2022-08-21T02:09:23.659Z,49.00
2022-08-21T02:11:54.762Z,48.90
2022-08-21T02:14:32.073Z,48.90
2022-08-21T02:17:08.870Z,48.90
2022-08-21T02:19:39.982Z,48.80
2022-08-21T02:22:10.559Z,48.90
2022-08-21T02:24:54.188Z,48.90
2022-08-21T02:27:26.801Z,48.90
2022-08-21T02:29:57.128Z,48.90
2022-08-21T02:32:25.774Z,48.80
2022-08-21T02:34:54.470Z,48.90
2022-08-21T02:37:23.951Z,48.90
2022-08-21T02:39:52.639Z,48.90
2022-08-21T02:42:21.462Z,48.70
2022-08-21T02:44:51.461Z,48.90
2022-08-21T02:47:20.263Z,48.90
2022-08-21T02:49:48.847Z,48.90
2022-08-21T02:52:17.412Z,48.90
2022-08-21T02:54:45.972Z,48.90
2022-08-21T02:57:14.564Z,48.90
2022-08-21T02:59:43.301Z,48.90
2022-08-21T03:02:13.330Z,48.90
2022-08-21T03:04:46.403Z,48.90
2022-08-21T03:07:16.483Z,48.90
2022-08-21T03:09:55.294Z,48.80
2022-08-21T03:12:24.907Z,48.90
2022-08-21T03:14:56.411Z,48.80
2022-08-21T03:17:29.430Z,48.90
2022-08-21T03:19:59.410Z,48.90
2022-08-21T03:22:30.953Z,48.90
2022-08-21T03:24:59.906Z,49.00
2022-08-21T03:27:29.948Z,48.90
2022-08-21T03:29:59.803Z,48.90
2022-08-21T03:32:30.196Z,48.40
2022-08-21T03:34:58.708Z,48.50
2022-08-21T03:37:27.329Z,48.50
2022-08-21T03:39:55.936Z,48.60
2022-08-21T03:42:24.866Z,48.90
2022-08-21T03:44:53.604Z,48.60
2022-08-21T03:47:23.171Z,48.80
2022-08-21T03:49:53.220Z,48.80
2022-08-21T03:52:21.953Z,48.80
2022-08-21T03:54:51.604Z,48.80
2022-08-21T03:57:22.639Z,48.80
2022-08-21T03:59:51.516Z,48.90
2022-08-21T04:02:23.205Z,48.80
2022-08-21T04:04:53.289Z,48.90
2022-08-21T04:07:22.019Z,49.00
2022-08-21T04:09:50.557Z,49.00
2022-08-21T04:12:20.254Z,49.00
2022-08-21T04:14:48.987Z,49.00
2022-08-21T04:17:17.819Z,49.00
2022-08-21T04:19:50.555Z,49.00
2022-08-21T04:22:23.618Z,48.90
2022-08-21T04:24:52.377Z,49.10
2022-08-21T04:27:20.884Z,49.00
2022-08-21T04:29:49.562Z,48.90
2022-08-21T04:32:25.072Z,48.90
2022-08-21T04:34:59.711Z,48.90
2022-08-21T04:37:30.197Z,48.80
2022-08-21T04:39:59.466Z,48.80
2022-08-21T04:42:29.604Z,48.60
2022-08-21T04:44:58.693Z,48.80
2022-08-21T04:47:41.742Z,48.90
2022-08-21T04:50:16.517Z,48.90
2022-08-21T04:52:57.819Z,48.90
2022-08-21T04:55:29.145Z,48.80
2022-08-21T04:57:58.705Z,48.70
2022-08-21T05:00:28.259Z,48.90
2022-08-21T05:03:00.312Z,48.70
2022-08-21T05:05:31.209Z,48.70
2022-08-21T05:08:04.738Z,48.80
2022-08-21T05:10:34.043Z,48.80
2022-08-21T05:13:03.305Z,48.70
2022-08-21T05:15:32.545Z,48.80
2022-08-21T05:18:04.091Z,48.90
2022-08-21T05:20:35.431Z,48.90
2022-08-21T05:23:09.995Z,48.80
2022-08-21T05:25:39.368Z,48.80
2022-08-21T05:28:08.656Z,48.80
2022-08-21T05:30:38.666Z,48.80
2022-08-21T05:33:08.617Z,48.80
2022-08-21T05:35:37.509Z,48.80
2022-08-21T05:38:07.832Z,48.80
2022-08-21T05:40:46.584Z,48.90
2022-08-21T05:43:15.413Z,48.90
2022-08-21T05:45:44.544Z,48.80
2022-08-21T05:48:15.556Z,48.80
2022-08-21T05:50:45.066Z,48.80
2022-08-21T05:53:15.977Z,48.80
2022-08-21T05:55:46.950Z,48.90
2022-08-21T05:58:17.507Z,48.90
2022-08-21T06:00:48.565Z,48.90
2022-08-21T06:03:19.973Z,48.90
2022-08-21T06:05:49.109Z,48.90
2022-08-21T06:08:22.427Z,48.90
2022-08-21T06:10:52.833Z,48.90
2022-08-21T06:13:22.945Z,48.90
2022-08-21T06:15:52.234Z,48.80
2022-08-21T06:18:20.975Z,48.90
2022-08-21T06:20:49.643Z,48.90
2022-08-21T06:23:19.711Z,48.90
2022-08-21T06:25:48.500Z,48.80
2022-08-21T06:28:17.058Z,48.90
2022-08-21T06:30:45.758Z,48.90
2022-08-21T06:33:14.331Z,48.90
2022-08-21T06:35:46.870Z,49.00
2022-08-21T06:38:15.528Z,48.90
2022-08-21T06:40:48.084Z,48.80
2022-08-21T06:43:20.075Z,48.70
2022-08-21T06:45:48.923Z,48.70
2022-08-21T06:48:20.465Z,48.70
2022-08-21T06:50:49.160Z,48.50
2022-08-21T06:53:20.288Z,48.90
2022-08-21T06:55:53.475Z,48.70
2022-08-21T06:58:22.265Z,47.50
2022-08-21T07:00:57.509Z,46.90
2022-08-21T07:03:32.150Z,46.50
2022-08-21T07:06:00.563Z,46.10
2022-08-21T07:08:30.140Z,45.80
2022-08-21T07:11:02.808Z,45.70
2022-08-21T07:13:31.654Z,45.40
2022-08-21T07:16:03.806Z,45.30
2022-08-21T07:18:32.733Z,45.40
2022-08-21T07:21:03.105Z,45.30
2022-08-21T07:23:33.958Z,45.10
2022-08-21T07:26:03.702Z,45.00
2022-08-21T07:28:32.741Z,45.10
2022-08-21T07:31:02.498Z,44.80
2022-08-21T07:33:33.071Z,44.60
2022-08-21T07:36:01.387Z,44.80
2022-08-21T07:38:29.633Z,44.70
2022-08-21T07:40:59.960Z,44.90
2022-08-21T07:43:30.200Z,44.80
2022-08-21T07:45:58.619Z,45.10
2022-08-21T07:48:26.938Z,45.40
2022-08-21T07:50:56.206Z,46.90
2022-08-21T07:53:24.467Z,45.60
2022-08-21T07:55:52.813Z,45.50
2022-08-21T07:58:21.245Z,45.80
2022-08-21T08:00:51.417Z,45.90
2022-08-21T08:03:20.538Z,46.10
2022-08-21T08:05:57.716Z,46.10
2022-08-21T08:08:26.539Z,46.30
2022-08-21T08:10:55.825Z,46.30
2022-08-21T08:13:24.209Z,46.40
2022-08-21T08:15:54.102Z,46.10
2022-08-21T08:18:22.410Z,46.30
2022-08-21T08:20:50.727Z,47.60
2022-08-21T08:23:19.091Z,46.60
2022-08-21T08:25:47.534Z,46.40
2022-08-21T08:28:16.651Z,46.50
2022-08-21T08:30:47.100Z,46.40
2022-08-21T08:33:17.400Z,46.40
2022-08-21T08:35:48.965Z,46.50
2022-08-21T08:38:21.335Z,46.50
2022-08-21T08:40:58.370Z,46.60
2022-08-21T08:43:26.687Z,46.70
2022-08-21T08:45:57.105Z,46.60
2022-08-21T08:48:40.973Z,46.70
2022-08-21T08:51:17.032Z,46.70
2022-08-21T08:53:52.743Z,46.70
2022-08-21T08:56:28.404Z,46.90
2022-08-21T08:58:59.642Z,46.80
2022-08-21T09:01:29.255Z,46.70
2022-08-21T09:03:59.274Z,46.80
2022-08-21T09:06:42.695Z,46.70
2022-08-21T09:09:24.156Z,46.80
2022-08-21T09:12:01.595Z,46.80
2022-08-21T09:14:41.335Z,46.90
2022-08-21T09:17:21.996Z,46.80
2022-08-21T09:20:03.924Z,47.00
2022-08-21T09:22:42.449Z,47.10
2022-08-21T09:25:17.133Z,47.00
2022-08-21T09:27:45.417Z,47.20
2022-08-21T09:30:14.603Z,47.00
2022-08-21T09:32:43.669Z,47.10
2022-08-21T09:35:16.233Z,47.10
2022-08-21T09:37:53.619Z,47.10
2022-08-21T09:40:31.347Z,47.10
2022-08-21T09:43:02.626Z,47.10
2022-08-21T09:45:33.994Z,47.20
2022-08-21T09:48:13.821Z,47.00
2022-08-21T09:50:44.953Z,47.00
2022-08-21T09:53:22.266Z,46.90
2022-08-21T09:56:16.369Z,47.00
2022-08-21T09:58:47.739Z,46.80
2022-08-21T10:01:18.040Z,47.00
2022-08-21T10:03:48.330Z,48.20
2022-08-21T10:06:28.021Z,47.10
2022-08-21T10:09:07.697Z,47.20
2022-08-21T10:11:36.447Z,47.20
2022-08-21T10:14:19.592Z,47.20
2022-08-21T10:16:59.156Z,47.10
2022-08-21T10:19:34.718Z,47.00
2022-08-21T10:22:15.339Z,47.00
2022-08-21T10:24:53.370Z,47.00
2022-08-21T10:27:29.251Z,47.10
2022-08-21T10:30:04.244Z,46.90
2022-08-21T10:32:48.675Z,46.90
2022-08-21T10:35:24.157Z,46.80
2022-08-21T10:38:10.346Z,46.20
2022-08-21T10:40:44.544Z,46.20
2022-08-21T10:43:29.495Z,46.20
2022-08-21T10:46:05.294Z,46.50
2022-08-21T10:48:38.960Z,46.40
2022-08-21T10:51:14.435Z,46.50
2022-08-21T10:53:55.930Z,46.60
2022-08-21T10:56:26.250Z,46.50
2022-08-21T10:59:10.217Z,46.50
2022-08-21T11:01:46.996Z,46.50
2022-08-21T11:04:24.141Z,46.50
2022-08-21T11:07:04.612Z,46.60
2022-08-21T11:09:50.192Z,46.70
2022-08-21T11:12:27.287Z,46.60
2022-08-21T11:15:03.690Z,46.50
2022-08-21T11:17:38.098Z,46.60
2022-08-21T11:20:12.668Z,46.50
2022-08-21T11:22:51.341Z,46.50
2022-08-21T11:25:36.475Z,46.60
2022-08-21T11:28:14.209Z,46.50
2022-08-21T11:30:54.312Z,46.40
2022-08-21T11:33:36.214Z,46.50
2022-08-21T11:36:15.293Z,46.50
2022-08-21T11:38:46.434Z,46.70
2022-08-21T11:41:26.927Z,46.70
2022-08-21T11:44:02.959Z,46.70
2022-08-21T11:46:42.107Z,46.60
2022-08-21T11:49:42.350Z,46.40
2022-08-21T11:52:18.360Z,46.50
2022-08-21T11:54:55.208Z,46.60
2022-08-21T11:57:30.155Z,46.40
2022-08-21T12:00:04.065Z,46.60
2022-08-21T12:02:47.329Z,46.60
2022-08-21T12:05:28.493Z,46.70
2022-08-21T12:08:06.928Z,46.50
2022-08-21T12:10:40.789Z,46.10
2022-08-21T12:13:15.918Z,46.40
2022-08-21T12:15:44.348Z,46.40
2022-08-21T12:18:25.909Z,46.50
2022-08-21T12:21:05.742Z,46.60
2022-08-21T12:23:37.885Z,46.70
2022-08-21T12:26:22.047Z,46.50
2022-08-21T12:28:52.413Z,46.70
2022-08-21T12:31:23.734Z,46.80
2022-08-21T12:34:02.122Z,46.80
2022-08-21T12:36:43.916Z,46.80
2022-08-21T12:39:18.913Z,46.70
2022-08-21T12:41:52.353Z,46.80
2022-08-21T12:44:26.835Z,46.70
2022-08-21T12:47:00.494Z,46.70
2022-08-21T12:49:32.893Z,46.70
2022-08-21T12:52:07.600Z,46.80
2022-08-21T12:54:42.011Z,46.80
2022-08-21T12:57:19.083Z,46.90
2022-08-21T12:59:53.842Z,46.70
2022-08-21T13:02:25.829Z,47.00
2022-08-21T13:04:57.310Z,46.80
2022-08-21T13:07:30.054Z,46.80
2022-08-21T13:10:00.705Z,46.80
2022-08-21T13:12:32.548Z,47.00
2022-08-21T13:15:08.876Z,47.00
2022-08-21T13:17:44.071Z,46.60
2022-08-21T13:20:22.155Z,46.30
2022-08-21T13:22:50.548Z,47.40
2022-08-21T13:25:20.446Z,46.40
2022-08-21T13:28:00.993Z,45.80
2022-08-21T13:30:31.605Z,45.90
2022-08-21T13:33:02.216Z,46.10
2022-08-21T13:35:36.919Z,46.20
2022-08-21T13:38:07.268Z,46.00
2022-08-21T13:40:44.730Z,46.40
2022-08-21T13:43:15.417Z,46.30
2022-08-21T13:45:54.334Z,46.20
2022-08-21T13:48:27.202Z,46.10
2022-08-21T13:50:56.101Z,46.00
2022-08-21T13:53:29.857Z,47.00
2022-08-21T13:56:00.719Z,45.90
2022-08-21T13:58:31.305Z,46.10
2022-08-21T14:01:06.527Z,46.00
2022-08-21T14:03:37.913Z,46.20
2022-08-21T14:06:14.699Z,46.20
2022-08-21T14:08:43.993Z,46.20
2022-08-21T14:11:14.488Z,46.30
2022-08-21T14:13:44.936Z,46.20
2022-08-21T14:16:18.855Z,44.90
2022-08-21T14:18:53.916Z,45.60
2022-08-21T14:21:34.255Z,46.20
2022-08-21T14:24:06.791Z,45.90
2022-08-21T14:26:38.495Z,45.70
2022-08-21T14:29:10.912Z,45.50
2022-08-21T14:31:43.329Z,45.70
2022-08-21T14:34:19.273Z,45.80
2022-08-21T14:36:48.635Z,45.70
2022-08-21T14:39:16.961Z,45.80
2022-08-21T14:41:47.136Z,45.40
2022-08-21T14:44:15.438Z,45.60
2022-08-21T14:46:55.921Z,44.40
2022-08-21T14:49:27.453Z,44.30
2022-08-21T14:51:58.326Z,44.50
2022-08-21T14:54:30.759Z,44.70
2022-08-21T14:57:02.641Z,44.70
2022-08-21T14:59:32.940Z,45.90
2022-08-21T15:02:05.168Z,44.90
2022-08-21T15:04:34.128Z,45.10
2022-08-21T15:07:02.644Z,44.90
2022-08-21T15:09:30.892Z,44.80
2022-08-21T15:12:02.105Z,45.20
2022-08-21T15:14:32.844Z,45.30
2022-08-21T15:17:04.512Z,45.40
2022-08-21T15:19:32.824Z,45.10
2022-08-21T15:22:01.490Z,45.20
2022-08-21T15:24:29.671Z,45.10
2022-08-21T15:26:58.840Z,45.00
2022-08-21T15:29:30.624Z,45.20
2022-08-21T15:32:16.934Z,45.20
2022-08-21T15:34:45.399Z,45.30
2022-08-21T15:37:13.741Z,45.10
2022-08-21T15:39:42.129Z,45.10
2022-08-21T15:42:11.474Z,45.00
2022-08-21T15:44:40.926Z,45.10
2022-08-21T15:47:14.213Z,44.80
2022-08-21T15:49:45.880Z,45.00
2022-08-21T15:52:14.710Z,44.90
2022-08-21T15:54:42.854Z,45.10
2022-08-21T15:57:13.964Z,45.10
2022-08-21T15:59:44.259Z,44.70
2022-08-21T16:02:19.022Z,44.60
2022-08-21T16:04:47.343Z,44.30
2022-08-21T16:07:15.952Z,44.40
2022-08-21T16:09:44.323Z,44.30
2022-08-21T16:12:16.900Z,43.90
2022-08-21T16:14:45.437Z,43.90
2022-08-21T16:17:15.215Z,43.60
2022-08-21T16:19:44.347Z,43.80
2022-08-21T16:22:13.083Z,43.60
2022-08-21T16:24:41.543Z,43.40
2022-08-21T16:27:10.505Z,43.30
2022-08-21T16:29:39.765Z,43.70
2022-08-21T16:32:09.386Z,43.80
2022-08-21T16:34:42.840Z,44.00
2022-08-21T16:37:13.171Z,44.20
2022-08-21T16:39:52.836Z,44.30
2022-08-21T16:42:25.891Z,43.90
2022-08-21T16:44:55.091Z,43.50
2022-08-21T16:47:26.482Z,43.70
2022-08-21T16:49:57.189Z,43.60
2022-08-21T16:52:25.387Z,43.80
2022-08-21T16:54:53.550Z,43.70
2022-08-21T16:57:21.820Z,43.70
2022-08-21T16:59:50.495Z,44.00
2022-08-21T17:02:28.120Z,43.80
2022-08-21T17:04:57.627Z,43.90
2022-08-21T17:07:26.157Z,43.80
2022-08-21T17:09:54.407Z,43.70
2022-08-21T17:12:23.473Z,43.70
2022-08-21T17:14:51.725Z,43.80
2022-08-21T17:17:20.926Z,44.00
2022-08-21T17:19:49.014Z,44.10
2022-08-21T17:22:18.569Z,43.90
2022-08-21T17:24:46.629Z,43.70
2022-08-21T17:27:15.099Z,43.90
2022-08-21T17:29:43.302Z,43.90
2022-08-21T17:32:13.082Z,44.10
2022-08-21T17:34:41.678Z,44.40
2022-08-21T17:37:09.796Z,44.20
2022-08-21T17:39:39.491Z,44.00
2022-08-21T17:42:11.747Z,44.20
2022-08-21T17:44:41.003Z,44.10
2022-08-21T17:47:10.014Z,44.00
2022-08-21T17:49:38.440Z,44.20
2022-08-21T17:52:07.550Z,44.30
2022-08-21T17:54:36.332Z,44.50
2022-08-21T17:57:06.613Z,44.60
2022-08-21T17:59:35.733Z,44.60
2022-08-21T18:02:09.775Z,44.60
2022-08-21T18:04:48.343Z,44.60
2022-08-21T18:07:32.041Z,44.60
2022-08-21T18:10:01.559Z,44.70
2022-08-21T18:12:33.055Z,44.80
2022-08-21T18:15:02.232Z,44.90
2022-08-21T18:17:32.552Z,45.00
2022-08-21T18:20:01.982Z,45.00
2022-08-21T18:22:30.118Z,45.10
2022-08-21T18:24:58.293Z,45.10
2022-08-21T18:27:29.568Z,45.10
2022-08-21T18:30:01.287Z,45.20
2022-08-21T18:32:32.282Z,45.20
2022-08-21T18:35:02.790Z,45.30
2022-08-21T18:37:31.955Z,46.50
2022-08-21T18:40:00.352Z,45.30
2022-08-21T18:42:30.639Z,45.40
2022-08-21T18:45:03.110Z,45.40
2022-08-21T18:47:37.182Z,45.40
2022-08-21T18:50:05.968Z,45.40
2022-08-21T18:52:43.380Z,45.40
2022-08-21T18:55:22.299Z,45.40
2022-08-21T18:57:50.418Z,45.40
2022-08-21T19:00:24.431Z,45.30
2022-08-21T19:02:53.324Z,45.40
2022-08-21T19:05:24.170Z,45.40
2022-08-21T19:07:54.059Z,45.40
2022-08-21T19:10:28.154Z,45.40
2022-08-21T19:12:59.706Z,45.40
2022-08-21T19:15:30.382Z,45.50
2022-08-21T19:17:59.644Z,45.50
2022-08-21T19:20:30.936Z,45.40
2022-08-21T19:22:59.359Z,45.40
2022-08-21T19:25:33.460Z,45.40
2022-08-21T19:28:10.954Z,45.40
2022-08-21T19:30:45.943Z,45.40
2022-08-21T19:33:24.041Z,45.40
2022-08-21T19:35:52.897Z,45.50
2022-08-21T19:38:21.980Z,45.50
2022-08-21T19:40:51.040Z,45.60
2022-08-21T19:46:10.268Z,45.60
2022-08-21T19:48:40.630Z,46.70
2022-08-21T19:51:09.179Z,46.80
2022-08-21T19:53:37.488Z,45.50
2022-08-21T19:56:06.173Z,45.50
2022-08-21T19:58:36.938Z,45.60
2022-08-21T20:01:11.327Z,45.60
2022-08-21T20:06:37.776Z,45.80
2022-08-21T20:09:07.689Z,45.80
2022-08-21T20:11:40.688Z,45.70
2022-08-21T20:14:10.360Z,47.00
2022-08-21T20:16:39.278Z,45.90
2022-08-21T20:19:12.182Z,45.90
2022-08-21T20:21:43.319Z,45.80
2022-08-21T20:24:15.074Z,45.80
2022-08-21T20:26:48.754Z,45.90
2022-08-21T20:29:24.413Z,45.90
2022-08-21T20:31:57.921Z,46.00
2022-08-21T20:34:27.850Z,46.00
2022-08-21T20:36:56.368Z,45.80
2022-08-21T20:39:25.029Z,45.60
2022-08-21T20:41:54.675Z,45.70
2022-08-21T20:44:23.388Z,45.80
2022-08-21T20:46:56.198Z,45.90
2022-08-21T20:49:31.119Z,45.90
2022-08-21T20:52:00.999Z,45.90
2022-08-21T20:54:35.095Z,45.90
2022-08-21T20:57:13.615Z,45.90
2022-08-21T20:59:51.758Z,46.10
2022-08-21T21:02:47.051Z,46.10
2022-08-21T21:05:21.111Z,45.90
2022-08-21T21:08:00.522Z,45.90
2022-08-21T21:10:35.476Z,46.00
2022-08-21T21:13:08.496Z,46.00
2022-08-21T21:15:37.865Z,45.90
2022-08-21T21:18:14.146Z,46.00
2022-08-21T21:20:49.920Z,46.10
2022-08-21T21:23:25.612Z,45.80
2022-08-21T21:26:00.908Z,45.90
2022-08-21T21:28:37.715Z,45.90
2022-08-21T21:31:06.403Z,46.00
2022-08-21T21:33:34.965Z,46.00
2022-08-21T21:36:13.459Z,46.10
2022-08-21T21:38:51.446Z,46.20
2022-08-21T21:41:29.601Z,46.30
2022-08-21T21:47:17.941Z,46.30
2022-08-21T21:50:03.729Z,46.20
2022-08-21T21:52:46.603Z,46.30
2022-08-21T21:55:29.420Z,46.20
2022-08-21T22:01:19.137Z,46.00
2022-08-21T22:03:54.438Z,46.10
2022-08-21T22:06:28.278Z,46.20
2022-08-21T22:09:03.906Z,45.90
2022-08-21T22:11:57.085Z,47.30
2022-08-21T22:14:32.643Z,46.10
2022-08-21T22:17:25.814Z,46.20
2022-08-21T22:19:56.054Z,46.20
2022-08-21T22:22:27.347Z,46.20
2022-08-21T22:25:05.025Z,46.10
2022-08-21T22:27:36.663Z,46.00
2022-08-21T22:30:09.431Z,46.20
2022-08-21T22:35:34.132Z,46.20
2022-08-21T22:38:13.717Z,46.20
2022-08-21T22:40:43.790Z,46.20
2022-08-21T22:43:18.343Z,46.40
2022-08-21T22:45:58.889Z,46.30
2022-08-21T22:48:31.511Z,46.20
2022-08-21T22:51:06.743Z,46.30
2022-08-21T22:53:38.688Z,46.40
2022-08-21T22:56:10.336Z,46.40
2022-08-21T22:58:41.677Z,46.40
2022-08-21T23:01:33.362Z,46.40
2022-08-21T23:04:17.059Z,46.40
2022-08-21T23:06:52.614Z,46.40
2022-08-21T23:09:33.620Z,46.50
2022-08-21T23:12:21.749Z,46.50
2022-08-21T23:14:54.843Z,46.50
2022-08-21T23:17:36.044Z,46.40
2022-08-21T23:20:13.128Z,46.60
2022-08-21T23:22:51.297Z,46.50
2022-08-21T23:25:39.079Z,46.60
2022-08-21T23:28:20.901Z,46.70
2022-08-21T23:30:56.443Z,46.60
2022-08-21T23:33:42.977Z,46.40
2022-08-21T23:36:38.032Z,46.40
2022-08-21T23:39:20.466Z,46.40
2022-08-21T23:41:57.068Z,46.30
2022-08-21T23:44:46.285Z,46.40
2022-08-21T23:47:28.673Z,46.40
2022-08-21T23:50:14.508Z,46.40
2022-08-21T23:52:57.974Z,46.60
2022-08-21T23:55:39.756Z,46.50
2022-08-21T23:58:18.472Z,46.50
